sensor_id;sensor_type;location;lat;lon;timestamp;pressure;altitude;pressure_sealevel;temperature;humidity
70544;BME280;58097;48.364;-1.224;2023-04-29T00:01:51;99815.84;;;12.44;89.90
70544;BME280;58097;48.364;-1.224;2023-04-29T00:04:16;99819.47;;;12.45;89.87
70544;BME280;58097;48.364;-1.224;2023-04-29T00:06:42;99821.72;;;12.41;90.35
70544;BME280;58097;48.364;-1.224;2023-04-29T00:09:07;99817.38;;;12.38;90.02
70544;BME280;58097;48.364;-1.224;2023-04-29T00:11:33;99814.78;;;12.37;90.06
70544;BME280;58097;48.364;-1.224;2023-04-29T00:13:58;99812.19;;;12.35;90.23
70544;BME280;58097;48.364;-1.224;2023-04-29T00:16:23;99820.50;;;12.35;90.00
70544;BME280;58097;48.364;-1.224;2023-04-29T00:18:49;99818.09;;;12.32;90.01
70544;BME280;58097;48.364;-1.224;2023-04-29T00:21:15;99817.94;;;12.26;89.83
70544;BME280;58097;48.364;-1.224;2023-04-29T00:23:40;99819.50;;;12.20;89.86
70544;BME280;58097;48.364;-1.224;2023-04-29T00:26:05;99816.38;;;12.15;89.77
70544;BME280;58097;48.364;-1.224;2023-04-29T00:28:31;99815.31;;;12.08;89.57
70544;BME280;58097;48.364;-1.224;2023-04-29T00:30:56;99822.25;;;12.04;89.97
70544;BME280;58097;48.364;-1.224;2023-04-29T00:33:22;99821.38;;;12.03;89.84
70544;BME280;58097;48.364;-1.224;2023-04-29T00:35:47;99821.75;;;12.00;89.97
70544;BME280;58097;48.364;-1.224;2023-04-29T00:38:12;99817.94;;;12.01;89.88
70544;BME280;58097;48.364;-1.224;2023-04-29T00:40:38;99816.03;;;12.02;90.24
70544;BME280;58097;48.364;-1.224;2023-04-29T00:43:04;99811.38;;;11.94;90.27
70544;BME280;58097;48.364;-1.224;2023-04-29T00:45:29;99812.06;;;11.96;90.47
70544;BME280;58097;48.364;-1.224;2023-04-29T00:47:54;99807.19;;;11.98;90.38
70544;BME280;58097;48.364;-1.224;2023-04-29T00:50:21;99807.19;;;11.98;90.50
70544;BME280;58097;48.364;-1.224;2023-04-29T00:52:47;99813.44;;;12.00;90.56
70544;BME280;58097;48.364;-1.224;2023-04-29T00:55:13;99806.16;;;11.99;90.52
70544;BME280;58097;48.364;-1.224;2023-04-29T00:57:38;99804.59;;;11.97;90.41
70544;BME280;58097;48.364;-1.224;2023-04-29T01:00:04;99801.66;;;11.90;90.26
70544;BME280;58097;48.364;-1.224;2023-04-29T01:02:30;99799.06;;;11.89;90.11
70544;BME280;58097;48.364;-1.224;2023-04-29T01:04:55;99792.28;;;11.83;90.09
70544;BME280;58097;48.364;-1.224;2023-04-29T01:07:32;99791.59;;;11.81;89.95
70544;BME280;58097;48.364;-1.224;2023-04-29T01:10:16;99788.84;;;11.81;89.89
70544;BME280;58097;48.364;-1.224;2023-04-29T01:12:44;99791.59;;;11.81;90.07
70544;BME280;58097;48.364;-1.224;2023-04-29T01:15:27;99792.47;;;11.82;90.01
70544;BME280;58097;48.364;-1.224;2023-04-29T01:17:59;99794.19;;;11.83;90.00
70544;BME280;58097;48.364;-1.224;2023-04-29T01:20:25;99787.44;;;11.85;90.14
70544;BME280;58097;48.364;-1.224;2023-04-29T01:22:51;99792.84;;;11.87;90.15
70544;BME280;58097;48.364;-1.224;2023-04-29T01:25:17;99789.91;;;11.88;90.31
70544;BME280;58097;48.364;-1.224;2023-04-29T01:28:01;99787.13;;;11.88;90.02
70544;BME280;58097;48.364;-1.224;2023-04-29T01:31:03;99797.88;;;11.91;90.07
70544;BME280;58097;48.364;-1.224;2023-04-29T01:36:07;99788.88;;;11.89;90.47
70544;BME280;58097;48.364;-1.224;2023-04-29T01:38:49;99787.13;;;11.88;90.49
70544;BME280;58097;48.364;-1.224;2023-04-29T01:41:22;99785.41;;;11.87;90.29
70544;BME280;58097;48.364;-1.224;2023-04-29T01:43:51;99776.06;;;11.88;90.67
70544;BME280;58097;48.364;-1.224;2023-04-29T01:46:17;99769.66;;;11.88;90.71
70544;BME280;58097;48.364;-1.224;2023-04-29T01:48:43;99769.47;;;11.89;90.71
70544;BME280;58097;48.364;-1.224;2023-04-29T01:51:08;99777.78;;;11.89;90.81
70544;BME280;58097;48.364;-1.224;2023-04-29T01:53:35;99774.31;;;11.87;91.06
70544;BME280;58097;48.364;-1.224;2023-04-29T01:56:00;99778.13;;;11.86;91.30
70544;BME280;58097;48.364;-1.224;2023-04-29T01:58:26;99778.13;;;11.86;91.49
70544;BME280;58097;48.364;-1.224;2023-04-29T02:00:52;99778.81;;;11.88;91.06
70544;BME280;58097;48.364;-1.224;2023-04-29T02:03:17;99775.19;;;11.88;91.13
70544;BME280;58097;48.364;-1.224;2023-04-29T02:05:43;99779.88;;;11.87;91.40
70544;BME280;58097;48.364;-1.224;2023-04-29T02:08:08;99776.22;;;11.87;91.25
70544;BME280;58097;48.364;-1.224;2023-04-29T02:10:33;99784.19;;;11.90;91.25
70544;BME280;58097;48.364;-1.224;2023-04-29T02:12:59;99786.09;;;11.89;91.22
70544;BME280;58097;48.364;-1.224;2023-04-29T02:15:26;99793.00;;;11.93;91.18
70544;BME280;58097;48.364;-1.224;2023-04-29T02:17:52;99792.84;;;11.95;91.09
70544;BME280;58097;48.364;-1.224;2023-04-29T02:20:18;99787.31;;;11.95;91.38
70544;BME280;58097;48.364;-1.224;2023-04-29T02:22:43;99799.25;;;11.95;91.30
70544;BME280;58097;48.364;-1.224;2023-04-29T02:25:09;99793.69;;;11.95;91.27
70544;BME280;58097;48.364;-1.224;2023-04-29T02:27:35;99791.63;;;11.97;91.67
70544;BME280;58097;48.364;-1.224;2023-04-29T02:30:01;99796.81;;;12.00;91.12
70544;BME280;58097;48.364;-1.224;2023-04-29T02:32:26;99807.53;;;12.03;91.30
70544;BME280;58097;48.364;-1.224;2023-04-29T02:34:52;99805.47;;;12.05;90.99
70544;BME280;58097;48.364;-1.224;2023-04-29T02:37:17;99806.16;;;12.07;91.09
70544;BME280;58097;48.364;-1.224;2023-04-29T02:39:43;99803.72;;;12.04;91.15
70544;BME280;58097;48.364;-1.224;2023-04-29T02:42:08;99805.81;;;12.02;91.25
70544;BME280;58097;48.364;-1.224;2023-04-29T02:44:33;99813.44;;;12.00;90.85
70544;BME280;58097;48.364;-1.224;2023-04-29T02:46:59;99808.75;;;11.93;91.27
70544;BME280;58097;48.364;-1.224;2023-04-29T02:49:24;99809.94;;;11.82;90.78
70544;BME280;58097;48.364;-1.224;2023-04-29T02:51:49;99812.72;;;11.82;91.03
70544;BME280;58097;48.364;-1.224;2023-04-29T02:54:15;99815.47;;;11.82;90.86
70544;BME280;58097;48.364;-1.224;2023-04-29T02:56:41;99816.69;;;11.79;90.86
70544;BME280;58097;48.364;-1.224;2023-04-29T02:59:07;99816.16;;;11.68;91.02
70544;BME280;58097;48.364;-1.224;2023-04-29T03:01:32;99822.00;;;11.57;90.86
70544;BME280;58097;48.364;-1.224;2023-04-29T03:03:57;99832.06;;;11.58;90.82
70544;BME280;58097;48.364;-1.224;2023-04-29T03:06:23;99835.50;;;11.60;91.02
70544;BME280;58097;48.364;-1.224;2023-04-29T03:08:48;99832.56;;;11.61;90.70
70544;BME280;58097;48.364;-1.224;2023-04-29T03:11:14;99835.88;;;11.65;90.90
70544;BME280;58097;48.364;-1.224;2023-04-29T03:13:39;99833.09;;;11.65;90.75
70544;BME280;58097;48.364;-1.224;2023-04-29T03:16:05;99842.09;;;11.67;90.78
70544;BME280;58097;48.364;-1.224;2023-04-29T03:18:31;99841.06;;;11.68;90.67
70544;BME280;58097;48.364;-1.224;2023-04-29T03:20:56;99837.25;;;11.69;90.67
70544;BME280;58097;48.364;-1.224;2023-04-29T03:23:22;99830.84;;;11.68;90.38
70544;BME280;58097;48.364;-1.224;2023-04-29T03:25:48;99840.88;;;11.69;90.39
70544;BME280;58097;48.364;-1.224;2023-04-29T03:28:14;99834.47;;;11.69;90.43
70544;BME280;58097;48.364;-1.224;2023-04-29T03:30:39;99848.31;;;11.69;90.32
70544;BME280;58097;48.364;-1.224;2023-04-29T03:33:05;99850.75;;;11.72;90.41
70544;BME280;58097;48.364;-1.224;2023-04-29T03:35:30;99846.25;;;11.71;90.36
70544;BME280;58097;48.364;-1.224;2023-04-29T03:37:56;99850.06;;;11.70;90.35
70544;BME280;58097;48.364;-1.224;2023-04-29T03:40:21;99840.19;;;11.67;90.08
70544;BME280;58097;48.364;-1.224;2023-04-29T03:42:46;99846.06;;;11.64;90.08
70544;BME280;58097;48.364;-1.224;2023-04-29T03:45:12;99840.00;;;11.61;90.06
70544;BME280;58097;48.364;-1.224;2023-04-29T03:47:38;99849.00;;;11.63;90.37
70544;BME280;58097;48.364;-1.224;2023-04-29T03:50:04;99842.78;;;11.61;90.21
70544;BME280;58097;48.364;-1.224;2023-04-29T03:52:30;99847.28;;;11.62;90.19
70544;BME280;58097;48.364;-1.224;2023-04-29T03:54:55;99842.59;;;11.62;90.26
70544;BME280;58097;48.364;-1.224;2023-04-29T03:57:21;99837.06;;;11.62;90.13
70544;BME280;58097;48.364;-1.224;2023-04-29T03:59:46;99839.16;;;11.60;90.36
70544;BME280;58097;48.364;-1.224;2023-04-29T04:02:15;99842.09;;;11.59;90.21
70544;BME280;58097;48.364;-1.224;2023-04-29T04:04:40;99835.50;;;11.60;90.39
70544;BME280;58097;48.364;-1.224;2023-04-29T04:07:06;99839.16;;;11.60;90.41
70544;BME280;58097;48.364;-1.224;2023-04-29T04:09:31;99840.88;;;11.61;90.60
70544;BME280;58097;48.364;-1.224;2023-04-29T04:11:57;99836.22;;;11.62;90.22
70544;BME280;58097;48.364;-1.224;2023-04-29T04:14:23;99839.84;;;11.62;90.32
70544;BME280;58097;48.364;-1.224;2023-04-29T04:16:48;99827.91;;;11.62;90.21
70544;BME280;58097;48.364;-1.224;2023-04-29T04:19:15;99829.97;;;11.60;90.33
70544;BME280;58097;48.364;-1.224;2023-04-29T04:21:40;99833.78;;;11.59;90.52
70544;BME280;58097;48.364;-1.224;2023-04-29T04:24:06;99835.69;;;11.58;90.51
70544;BME280;58097;48.364;-1.224;2023-04-29T04:26:31;99835.69;;;11.58;90.65
70544;BME280;58097;48.364;-1.224;2023-04-29T04:28:57;99835.50;;;11.60;90.53
70544;BME280;58097;48.364;-1.224;2023-04-29T04:31:22;99835.50;;;11.60;90.44
70544;BME280;58097;48.364;-1.224;2023-04-29T04:33:48;99833.44;;;11.62;90.51
70544;BME280;58097;48.364;-1.224;2023-04-29T04:36:13;99840.72;;;11.63;90.44
70544;BME280;58097;48.364;-1.224;2023-04-29T04:38:38;99838.81;;;11.63;90.71
70544;BME280;58097;48.364;-1.224;2023-04-29T04:41:06;99839.66;;;11.64;90.43
70544;BME280;58097;48.364;-1.224;2023-04-29T04:43:32;99850.56;;;11.65;90.40
70544;BME280;58097;48.364;-1.224;2023-04-29T04:45:57;99843.13;;;11.66;90.64
70544;BME280;58097;48.364;-1.224;2023-04-29T04:48:23;99843.13;;;11.66;90.60
70544;BME280;58097;48.364;-1.224;2023-04-29T04:50:48;99842.59;;;11.62;91.00
70544;BME280;58097;48.364;-1.224;2023-04-29T04:53:13;99843.47;;;11.63;90.71
70544;BME280;58097;48.364;-1.224;2023-04-29T04:55:39;99848.16;;;11.62;90.85
70544;BME280;58097;48.364;-1.224;2023-04-29T04:58:04;99848.16;;;11.62;91.16
70544;BME280;58097;48.364;-1.224;2023-04-29T05:00:30;99857.47;;;11.61;91.09
70544;BME280;58097;48.364;-1.224;2023-04-29T05:02:55;99862.81;;;11.55;91.26
70544;BME280;58097;48.364;-1.224;2023-04-29T05:05:20;99862.81;;;11.55;91.08
70544;BME280;58097;48.364;-1.224;2023-04-29T05:07:46;99856.09;;;11.57;91.14
70544;BME280;58097;48.364;-1.224;2023-04-29T05:10:11;99864.06;;;11.60;91.25
70544;BME280;58097;48.364;-1.224;2023-04-29T05:12:37;99866.81;;;11.60;91.14
70544;BME280;58097;48.364;-1.224;2023-04-29T05:15:02;99868.56;;;11.61;91.18
70544;BME280;58097;48.364;-1.224;2023-04-29T05:17:30;99870.13;;;11.64;91.09
70544;BME280;58097;48.364;-1.224;2023-04-29T05:19:55;99868.03;;;11.66;91.08
70544;BME280;58097;48.364;-1.224;2023-04-29T05:22:21;99871.34;;;11.69;91.28
70544;BME280;58097;48.364;-1.224;2023-04-29T05:24:46;99876.00;;;11.69;91.47
70544;BME280;58097;48.364;-1.224;2023-04-29T05:27:16;99872.38;;;11.68;91.16
70544;BME280;58097;48.364;-1.224;2023-04-29T05:29:42;99876.00;;;11.69;91.21
70544;BME280;58097;48.364;-1.224;2023-04-29T05:32:08;99880.34;;;11.71;91.51
70544;BME280;58097;48.364;-1.224;2023-04-29T05:34:33;99869.25;;;11.71;91.29
70544;BME280;58097;48.364;-1.224;2023-04-29T05:36:59;99877.22;;;11.74;91.19
70544;BME280;58097;48.364;-1.224;2023-04-29T05:39:24;99879.66;;;11.77;91.38
70544;BME280;58097;48.364;-1.224;2023-04-29T05:41:50;99879.50;;;11.79;91.34
70544;BME280;58097;48.364;-1.224;2023-04-29T05:44:16;99880.91;;;11.83;91.56
70544;BME280;58097;48.364;-1.224;2023-04-29T05:46:41;99882.31;;;11.87;91.28
70544;BME280;58097;48.364;-1.224;2023-04-29T05:49:06;99876.59;;;11.89;91.35
70544;BME280;58097;48.364;-1.224;2023-04-29T05:51:33;99883.72;;;11.91;91.50
70544;BME280;58097;48.364;-1.224;2023-04-29T05:53:58;99880.41;;;11.96;91.39
70544;BME280;58097;48.364;-1.224;2023-04-29T05:56:24;99885.97;;;11.96;91.59
70544;BME280;58097;48.364;-1.224;2023-04-29T05:58:49;99883.53;;;11.93;91.25
70544;BME280;58097;48.364;-1.224;2023-04-29T06:01:15;99886.31;;;11.93;91.32
70544;BME280;58097;48.364;-1.224;2023-04-29T06:03:41;99883.53;;;11.93;91.58
70544;BME280;58097;48.364;-1.224;2023-04-29T06:06:07;99894.97;;;11.90;91.75
70544;BME280;58097;48.364;-1.224;2023-04-29T06:08:32;99897.72;;;11.90;91.71
70544;BME280;58097;48.364;-1.224;2023-04-29T06:10:58;99899.28;;;11.92;91.80
70544;BME280;58097;48.364;-1.224;2023-04-29T06:13:23;99903.78;;;11.93;91.58
70544;BME280;58097;48.364;-1.224;2023-04-29T06:15:49;99901.72;;;11.95;91.79
70544;BME280;58097;48.364;-1.224;2023-04-29T06:18:14;99913.47;;;11.97;91.51
70544;BME280;58097;48.364;-1.224;2023-04-29T06:20:39;99915.03;;;12.00;91.53
70544;BME280;58097;48.364;-1.224;2023-04-29T06:23:05;99925.78;;;12.03;91.42
70544;BME280;58097;48.364;-1.224;2023-04-29T06:25:30;99934.59;;;12.06;91.51
70544;BME280;58097;48.364;-1.224;2023-04-29T06:27:56;99934.25;;;12.09;91.41
70544;BME280;58097;48.364;-1.224;2023-04-29T06:30:22;99936.16;;;12.09;91.35
70544;BME280;58097;48.364;-1.224;2023-04-29T06:32:47;99943.78;;;12.07;91.24
70544;BME280;58097;48.364;-1.224;2023-04-29T06:35:12;99940.16;;;12.06;91.37
70544;BME280;58097;48.364;-1.224;2023-04-29T06:37:38;99936.34;;;12.07;91.03
70544;BME280;58097;48.364;-1.224;2023-04-29T06:40:03;99927.84;;;12.09;91.52
70544;BME280;58097;48.364;-1.224;2023-04-29T06:42:29;99932.19;;;12.12;91.28
70544;BME280;58097;48.364;-1.224;2023-04-29T06:44:55;99933.91;;;12.13;91.75
70544;BME280;58097;48.364;-1.224;2023-04-29T06:47:20;99939.47;;;12.13;91.35
70544;BME280;58097;48.364;-1.224;2023-04-29T06:49:45;99949.38;;;12.15;91.54
70544;BME280;58097;48.364;-1.224;2023-04-29T06:52:11;99954.69;;;12.08;91.70
70544;BME280;58097;48.364;-1.224;2023-04-29T06:54:36;99949.66;;;12.12;91.58
70544;BME280;58097;48.364;-1.224;2023-04-29T06:57:02;99947.59;;;12.14;91.63
70544;BME280;58097;48.364;-1.224;2023-04-29T06:59:27;99941.56;;;12.19;91.76
70544;BME280;58097;48.364;-1.224;2023-04-29T07:01:53;99941.91;;;12.24;91.52
70544;BME280;58097;48.364;-1.224;2023-04-29T07:04:18;99947.47;;;12.24;91.32
70544;BME280;58097;48.364;-1.224;2023-04-29T07:06:44;99955.94;;;12.30;91.73
70544;BME280;58097;48.364;-1.224;2023-04-29T07:09:11;99953.88;;;12.32;91.37
70544;BME280;58097;48.364;-1.224;2023-04-29T07:11:38;99953.69;;;12.34;91.59
70544;BME280;58097;48.364;-1.224;2023-04-29T07:14:03;99958.91;;;12.37;91.26
70544;BME280;58097;48.364;-1.224;2023-04-29T07:16:29;99959.75;;;12.37;91.56
70544;BME280;58097;48.364;-1.224;2023-04-29T07:18:54;99965.13;;;12.31;91.66
70544;BME280;58097;48.364;-1.224;2023-04-29T07:21:20;99965.47;;;12.36;91.69
70544;BME280;58097;48.364;-1.224;2023-04-29T07:23:45;99969.28;;;12.35;91.58
70544;BME280;58097;48.364;-1.224;2023-04-29T07:26:12;99971.53;;;12.39;91.62
70544;BME280;58097;48.364;-1.224;2023-04-29T07:28:38;99970.50;;;12.40;91.50
70544;BME280;58097;48.364;-1.224;2023-04-29T07:31:04;99967.56;;;12.42;91.56
70544;BME280;58097;48.364;-1.224;2023-04-29T07:33:29;99966.19;;;12.46;91.74
70544;BME280;58097;48.364;-1.224;2023-04-29T07:35:55;99969.84;;;12.47;91.66
70544;BME280;58097;48.364;-1.224;2023-04-29T07:38:21;99977.47;;;12.45;91.75
70544;BME280;58097;48.364;-1.224;2023-04-29T07:40:46;99976.38;;;12.37;92.13
70544;BME280;58097;48.364;-1.224;2023-04-29T07:43:11;99983.66;;;12.38;92.17
70544;BME280;58097;48.364;-1.224;2023-04-29T07:45:37;99978.47;;;12.35;92.04
70544;BME280;58097;48.364;-1.224;2023-04-29T07:48:04;99987.47;;;12.29;92.06
70544;BME280;58097;48.364;-1.224;2023-04-29T07:50:29;99998.03;;;12.34;92.17
70544;BME280;58097;48.364;-1.224;2023-04-29T07:52:55;99996.66;;;12.38;92.31
70544;BME280;58097;48.364;-1.224;2023-04-29T07:55:22;100001.16;;;12.39;92.11
70544;BME280;58097;48.364;-1.224;2023-04-29T07:57:47;100002.22;;;12.46;92.07
70544;BME280;58097;48.364;-1.224;2023-04-29T08:00:13;100004.31;;;12.52;92.00
70544;BME280;58097;48.364;-1.224;2023-04-29T08:02:38;100006.22;;;12.60;92.12
70544;BME280;58097;48.364;-1.224;2023-04-29T08:05:04;100007.44;;;12.57;92.06
70544;BME280;58097;48.364;-1.224;2023-04-29T08:07:29;100009.34;;;12.57;91.84
70544;BME280;58097;48.364;-1.224;2023-04-29T08:09:54;100016.09;;;12.62;91.79
70544;BME280;58097;48.364;-1.224;2023-04-29T08:12:20;100018.88;;;12.62;91.77
70544;BME280;58097;48.364;-1.224;2023-04-29T08:14:45;100012.63;;;12.68;91.65
70544;BME280;58097;48.364;-1.224;2023-04-29T08:17:10;100011.41;;;12.71;91.59
70544;BME280;58097;48.364;-1.224;2023-04-29T08:19:36;100018.03;;;12.78;91.62
70544;BME280;58097;48.364;-1.224;2023-04-29T08:22:01;100012.13;;;12.81;91.50
70544;BME280;58097;48.364;-1.224;2023-04-29T08:24:28;100018.38;;;12.83;90.91
70544;BME280;58097;48.364;-1.224;2023-04-29T08:26:53;100010.22;;;12.90;91.20
70544;BME280;58097;48.364;-1.224;2023-04-29T08:29:19;100012.13;;;12.89;91.43
70544;BME280;58097;48.364;-1.224;2023-04-29T08:31:44;100009.34;;;12.89;91.31
70544;BME280;58097;48.364;-1.224;2023-04-29T08:34:10;100017.66;;;12.89;91.14
70544;BME280;58097;48.364;-1.224;2023-04-29T08:36:36;100010.56;;;12.87;91.36
70544;BME280;58097;48.364;-1.224;2023-04-29T08:39:03;100008.50;;;12.81;91.83
70544;BME280;58097;48.364;-1.224;2023-04-29T08:41:30;100010.56;;;12.87;92.04
70544;BME280;58097;48.364;-1.224;2023-04-29T08:43:58;100005.72;;;12.89;92.30
70544;BME280;58097;48.364;-1.224;2023-04-29T08:46:25;100010.91;;;12.84;91.54
70544;BME280;58097;48.364;-1.224;2023-04-29T08:48:50;100011.44;;;12.87;91.69
70544;BME280;58097;48.364;-1.224;2023-04-29T08:51:16;100009.84;;;12.93;91.76
70544;BME280;58097;48.364;-1.224;2023-04-29T08:53:42;100007.63;;;13.05;92.00
70544;BME280;58097;48.364;-1.224;2023-04-29T08:56:12;100009.50;;;13.12;91.87
70544;BME280;58097;48.364;-1.224;2023-04-29T08:58:39;100021.47;;;13.21;91.92
70544;BME280;58097;48.364;-1.224;2023-04-29T09:01:08;100022.69;;;13.26;90.88
70544;BME280;58097;48.364;-1.224;2023-04-29T09:03:41;100027.88;;;13.29;90.10
70544;BME280;58097;48.364;-1.224;2023-04-29T09:06:09;100029.28;;;13.33;90.89
70544;BME280;58097;48.364;-1.224;2023-04-29T09:08:36;100030.16;;;13.34;90.82
70544;BME280;58097;48.364;-1.224;2023-04-29T09:11:02;100034.81;;;13.42;90.54
70544;BME280;58097;48.364;-1.224;2023-04-29T09:13:30;100019.72;;;13.44;90.39
70544;BME280;58097;48.364;-1.224;2023-04-29T09:15:56;100027.34;;;13.42;89.97
70544;BME280;58097;48.364;-1.224;2023-04-29T09:18:50;100030.09;;;13.50;89.46
70544;BME280;58097;48.364;-1.224;2023-04-29T09:23:46;100028.00;;;13.52;88.68
70544;BME280;58097;48.364;-1.224;2023-04-29T09:26:13;100028.53;;;13.56;89.27
70544;BME280;58097;48.364;-1.224;2023-04-29T09:28:38;100022.94;;;13.72;89.83
70544;BME280;58097;48.364;-1.224;2023-04-29T09:31:05;100026.53;;;13.89;89.17
70544;BME280;58097;48.364;-1.224;2023-04-29T09:33:48;100022.44;;;14.08;88.51
70544;BME280;58097;48.364;-1.224;2023-04-29T09:36:45;100022.00;;;14.27;88.95
70544;BME280;58097;48.364;-1.224;2023-04-29T09:39:20;100025.59;;;14.36;88.29
70544;BME280;58097;48.364;-1.224;2023-04-29T09:44:14;100032.94;;;14.60;88.02
70544;BME280;58097;48.364;-1.224;2023-04-29T09:46:40;100036.72;;;14.67;88.41
70544;BME280;58097;48.364;-1.224;2023-04-29T09:49:21;100039.59;;;14.73;87.23
70544;BME280;58097;48.364;-1.224;2023-04-29T09:51:58;100039.78;;;14.72;87.27
70544;BME280;58097;48.364;-1.224;2023-04-29T09:54:29;100040.13;;;14.77;87.85
70544;BME280;58097;48.364;-1.224;2023-04-29T09:56:56;100039.56;;;14.81;85.12
70544;BME280;58097;48.364;-1.224;2023-04-29T09:59:23;100033.56;;;14.70;85.30
70544;BME280;58097;48.364;-1.224;2023-04-29T10:01:56;100036.97;;;14.80;86.32
70544;BME280;58097;48.364;-1.224;2023-04-29T10:04:23;100036.72;;;14.90;86.10
70544;BME280;58097;48.364;-1.224;2023-04-29T10:06:51;100041.72;;;14.94;86.07
70544;BME280;58097;48.364;-1.224;2023-04-29T10:09:17;100042.50;;;15.03;85.22
70544;BME280;58097;48.364;-1.224;2023-04-29T10:11:44;100040.72;;;15.10;87.02
70544;BME280;58097;48.364;-1.224;2023-04-29T10:14:14;100048.25;;;15.24;85.97
70544;BME280;58097;48.364;-1.224;2023-04-29T10:19:32;100048.31;;;15.16;85.34
70544;BME280;58097;48.364;-1.224;2023-04-29T10:22:04;100056.22;;;15.27;86.35
70544;BME280;58097;48.364;-1.224;2023-04-29T10:24:31;100042.34;;;15.42;86.52
70544;BME280;58097;48.364;-1.224;2023-04-29T10:26:59;100050.34;;;15.60;86.47
70544;BME280;58097;48.364;-1.224;2023-04-29T10:29:28;100048.47;;;15.75;87.35
70544;BME280;58097;48.364;-1.224;2023-04-29T10:31:56;100044.91;;;15.81;83.30
70544;BME280;58097;48.364;-1.224;2023-04-29T10:34:23;100043.97;;;15.51;79.00
70544;BME280;58097;48.364;-1.224;2023-04-29T10:36:49;100040.25;;;15.59;83.14
70544;BME280;58097;48.364;-1.224;2023-04-29T10:39:23;100039.53;;;15.65;82.89
70544;BME280;58097;48.364;-1.224;2023-04-29T10:41:51;100040.38;;;15.80;82.78
70544;BME280;58097;48.364;-1.224;2023-04-29T10:44:17;100033.19;;;15.71;79.70
70544;BME280;58097;48.364;-1.224;2023-04-29T10:46:43;100044.91;;;15.81;83.24
70544;BME280;58097;48.364;-1.224;2023-04-29T10:49:09;100046.34;;;15.92;83.47
70544;BME280;58097;48.364;-1.224;2023-04-29T10:51:44;100048.84;;;16.01;82.22
70544;BME280;58097;48.364;-1.224;2023-04-29T10:54:16;100041.97;;;16.19;82.88
70544;BME280;58097;48.364;-1.224;2023-04-29T10:56:49;100043.31;;;16.37;81.74
70544;BME280;58097;48.364;-1.224;2023-04-29T11:02:00;100038.03;;;16.64;80.48
70544;BME280;58097;48.364;-1.224;2023-04-29T11:04:26;100029.94;;;16.84;82.32
70544;BME280;58097;48.364;-1.224;2023-04-29T11:06:55;100029.34;;;16.88;80.26
70544;BME280;58097;48.364;-1.224;2023-04-29T11:09:26;100034.72;;;16.90;79.54
70544;BME280;58097;48.364;-1.224;2023-04-29T11:17:00;100040.97;;;16.56;78.41
70544;BME280;58097;48.364;-1.224;2023-04-29T11:19:46;100042.75;;;16.63;81.01
70544;BME280;58097;48.364;-1.224;2023-04-29T11:25:04;100035.25;;;16.79;81.58
70544;BME280;58097;48.364;-1.224;2023-04-29T11:27:37;100030.03;;;16.76;80.88
70544;BME280;58097;48.364;-1.224;2023-04-29T11:30:04;100032.13;;;16.88;82.67
70544;BME280;58097;48.364;-1.224;2023-04-29T11:32:35;100028.31;;;16.96;79.99
70544;BME280;58097;48.364;-1.224;2023-04-29T11:37:32;100024.25;;;16.98;78.20
70544;BME280;58097;48.364;-1.224;2023-04-29T11:39:58;100011.56;;;16.96;79.79
70544;BME280;58097;48.364;-1.224;2023-04-29T11:42:25;100010.38;;;17.05;80.46
70544;BME280;58097;48.364;-1.224;2023-04-29T11:44:52;100012.38;;;17.11;79.98
70544;BME280;58097;48.364;-1.224;2023-04-29T11:47:18;100004.66;;;17.13;79.08
70544;BME280;58097;48.364;-1.224;2023-04-29T11:49:43;100013.75;;;17.22;79.03
70544;BME280;58097;48.364;-1.224;2023-04-29T11:52:09;100011.25;;;17.33;78.15
70544;BME280;58097;48.364;-1.224;2023-04-29T11:54:35;100002.34;;;17.45;79.80
70544;BME280;58097;48.364;-1.224;2023-04-29T11:57:00;100005.75;;;17.68;78.60
70544;BME280;58097;48.364;-1.224;2023-04-29T11:59:30;100003.03;;;17.81;78.85
70544;BME280;58097;48.364;-1.224;2023-04-29T12:01:57;99996.72;;;18.07;78.89
70544;BME280;58097;48.364;-1.224;2023-04-29T12:04:22;99995.75;;;18.28;76.54
70544;BME280;58097;48.364;-1.224;2023-04-29T12:06:50;99989.72;;;18.24;75.21
70544;BME280;58097;48.364;-1.224;2023-04-29T12:09:17;99998.53;;;18.21;73.90
70544;BME280;58097;48.364;-1.224;2023-04-29T12:11:43;99998.69;;;18.13;73.38
70544;BME280;58097;48.364;-1.224;2023-04-29T12:14:09;99995.47;;;18.16;74.42
70544;BME280;58097;48.364;-1.224;2023-04-29T12:16:35;100008.13;;;18.06;70.51
70544;BME280;58097;48.364;-1.224;2023-04-29T12:19:00;99996.91;;;17.99;72.78
70544;BME280;58097;48.364;-1.224;2023-04-29T12:21:26;99996.03;;;17.99;72.29
70544;BME280;58097;48.364;-1.224;2023-04-29T12:23:53;99999.94;;;18.04;72.84
70544;BME280;58097;48.364;-1.224;2023-04-29T12:26:18;99989.28;;;18.27;72.77
70544;BME280;58097;48.364;-1.224;2023-04-29T12:28:45;99993.81;;;18.29;70.13
70544;BME280;58097;48.364;-1.224;2023-04-29T12:31:10;99998.78;;;18.40;73.79
70544;BME280;58097;48.364;-1.224;2023-04-29T12:33:41;100004.41;;;18.46;72.89
70544;BME280;58097;48.364;-1.224;2023-04-29T12:36:15;100004.66;;;18.51;71.84
70544;BME280;58097;48.364;-1.224;2023-04-29T12:38:41;99994.91;;;18.34;71.19
70544;BME280;58097;48.364;-1.224;2023-04-29T12:41:07;100006.28;;;18.26;69.44
70544;BME280;58097;48.364;-1.224;2023-04-29T12:43:32;99997.19;;;18.17;72.90
70544;BME280;58097;48.364;-1.224;2023-04-29T12:46:05;99994.19;;;18.19;70.64
70544;BME280;58097;48.364;-1.224;2023-04-29T12:48:37;99988.63;;;18.25;70.91
70544;BME280;58097;48.364;-1.224;2023-04-29T12:51:03;99989.72;;;18.31;70.59
70544;BME280;58097;48.364;-1.224;2023-04-29T12:53:29;99992.13;;;18.47;71.42
70544;BME280;58097;48.364;-1.224;2023-04-29T12:55:55;99988.16;;;18.76;72.06
70544;BME280;58097;48.364;-1.224;2023-04-29T12:58:21;99984.97;;;18.93;72.78
70544;BME280;58097;48.364;-1.224;2023-04-29T13:00:46;99976.56;;;19.06;71.42
70544;BME280;58097;48.364;-1.224;2023-04-29T13:03:12;99981.31;;;19.12;71.38
70544;BME280;58097;48.364;-1.224;2023-04-29T13:05:37;99979.59;;;19.11;71.35
70544;BME280;58097;48.364;-1.224;2023-04-29T13:08:03;99986.25;;;18.97;68.49
70544;BME280;58097;48.364;-1.224;2023-04-29T13:10:32;99989.25;;;18.82;70.22